Terminal Aerodrome Forecast
Issued by NWS

Home | Current Version | Previous Version | Text Only | Print | Product List | Glossary Off
Versions: 1 2 3 4 5 6 7 8 9 10 11 12 13 14 15 16 17 18 19 20 21 22 23 24 25 26 27 28 29

000
FTUS43 KPAH 191700
TAFOWB
TAF
KOWB 191720Z 1918/2018 06006KT P6SM SCT015 BKN040
     FM200200 04003KT P6SM SCT005 OVC015
     FM200500 VRB02KT 4SM BR OVC005
     FM200800 VRB02KT 2SM BR OVC004
     FM201500 VRB03KT P6SM BKN012=

USA.gov is the U.S. government's official web portal to all federal, state and local government web resources and services.